Time;durP1;ratioP1;P1;durP2;ratioP2;P2;SDS_P1;SDS_P2;PMS_P1;PMS_P2;Temp;Humidity;BMP_temperature;BMP_pressure;BME280_temperature;BME280_humidity;BME280_pressure;Samples;Min_cycle;Max_cycle;Signal;HPM_P1;HPM_P2
2021/11/29 00:00:12;;;;;;;;;18.00;18.00;;;;;12.43;99.13;100190.16;4834990;29;10099;-72
2021/11/29 00:03:10;;;;;;;;;15.75;15.75;;;;;12.60;98.14;100186.25;4843330;29;10111;-72
2021/11/29 00:06:06;;;;;;;;;16.00;16.00;;;;;12.50;98.11;100193.13;4842837;29;10194;-72
2021/11/29 00:09:03;;;;;;;;;16.75;16.75;;;;;12.44;98.38;100190.97;4840072;29;10078;-72
2021/11/29 00:11:59;;;;;;;;;16.75;16.50;;;;;12.45;98.09;100200.91;4843017;29;10124;-72
2021/11/29 00:14:54;;;;;;;;;18.25;17.75;;;;;12.45;98.31;100206.44;4843044;29;10107;-72
2021/11/29 00:17:50;;;;;;;;;18.25;18.25;;;;;12.48;98.10;100212.06;4841469;29;10490;-72
2021/11/29 00:20:46;;;;;;;;;17.00;16.75;;;;;12.48;98.19;100217.63;4842821;29;10179;-72
2021/11/29 00:23:44;;;;;;;;;19.00;18.00;;;;;12.32;98.05;100211.25;4841619;29;10104;-72
2021/11/29 00:26:40;;;;;;;;;16.00;16.00;;;;;12.30;98.59;100202.47;4824486;29;10013;-72
2021/11/29 00:29:36;;;;;;;;;20.75;19.50;;;;;12.37;97.39;100208.22;4823847;29;10197;-72
2021/11/29 00:32:32;;;;;;;;;94.50;87.50;;;;;12.32;98.02;100199.34;4824389;29;10318;-72
2021/11/29 00:35:27;;;;;;;;;58.50;49.75;;;;;12.24;98.17;100198.34;4824164;29;11803;-72
2021/11/29 00:38:23;;;;;;;;;69.00;54.00;;;;;12.34;98.01;100197.81;4831208;29;11747;-72
2021/11/29 00:41:19;;;;;;;;;65.00;52.00;;;;;12.31;98.49;100190.22;4842285;29;11866;-72
2021/11/29 00:44:15;;;;;;;;;30.00;26.75;;;;;12.44;97.79;100194.56;4842324;29;11695;-72
2021/11/29 00:47:11;;;;;;;;;76.50;61.00;;;;;12.32;98.07;100185.47;4842591;29;10272;-72
2021/11/29 00:50:11;;;;;;;;;50.75;41.75;;;;;12.40;97.87;100199.19;4839904;29;11772;-72
2021/11/29 00:53:09;;;;;;;;;24.00;22.50;;;;;12.40;97.58;100198.38;4842260;29;11710;-72
2021/11/29 00:56:05;;;;;;;;;22.50;22.50;;;;;12.45;97.78;100193.38;4842289;29;10493;-72
2021/11/29 00:59:00;;;;;;;;;19.75;19.75;;;;;12.42;97.83;100198.81;4829608;29;10454;-72
2021/11/29 01:01:56;;;;;;;;;5.00;5.00;;;;;12.48;97.69;100198.22;4823874;29;10273;-72
2021/11/29 01:04:24;;;;;;;;;21.25;21.25;;;;;12.44;97.93;100190.97;4824622;29;10520;-72
2021/11/29 01:07:20;;;;;;;;;20.00;20.00;;;;;12.46;97.87;100188.63;4841465;29;10336;-72
2021/11/29 01:10:17;;;;;;;;;20.75;20.75;;;;;12.39;97.39;100182.91;4823717;29;10043;-72
2021/11/29 01:13:12;;;;;;;;;17.25;17.25;;;;;12.33;98.08;100170.47;4823689;29;10188;-72
2021/11/29 01:16:09;;;;;;;;;21.00;21.00;;;;;12.31;97.24;100168.03;4823790;29;10366;-72
2021/11/29 01:19:05;;;;;;;;;23.00;22.75;;;;;12.30;96.94;100160.88;4836116;29;10290;-72
2021/11/29 01:22:00;;;;;;;;;18.00;18.00;;;;;12.26;97.25;100157.19;4841700;29;10192;-72
2021/11/29 01:24:56;;;;;;;;;24.50;23.00;;;;;12.32;96.93;100174.38;4840372;29;10973;-72
2021/11/29 01:27:24;;;;;;;;;19.25;19.25;;;;;12.28;96.52;100162.41;4842420;29;10330;-72
2021/11/29 01:30:19;;;;;;;;;19.75;19.75;;;;;12.32;96.21;100164.09;4830307;29;10092;-72
2021/11/29 01:33:16;;;;;;;;;23.50;23.50;;;;;12.23;96.84;100157.91;4829556;29;10119;-72
2021/11/29 01:36:12;;;;;;;;;19.00;18.50;;;;;12.25;97.12;100144.50;4841491;29;10304;-72
2021/11/29 01:39:09;;;;;;;;;22.00;22.00;;;;;12.29;97.00;100142.66;4829095;29;11106;-72
2021/11/29 01:42:07;;;;;;;;;24.25;24.00;;;;;12.21;97.77;100147.19;4810172;29;10502;-72
2021/11/29 01:45:04;;;;;;;;;29.00;28.25;;;;;12.26;97.63;100146.09;4829642;29;10394;-72
2021/11/29 01:48:00;;;;;;;;;21.75;21.75;;;;;12.32;97.26;100143.88;4833533;29;10382;-72
2021/11/29 01:50:58;;;;;;;;;24.50;24.50;;;;;12.36;97.43;100130.94;4810991;29;10640;-72
2021/11/29 01:53:54;;;;;;;;;48.00;40.25;;;;;12.44;97.04;100143.81;4823245;29;10194;-72
2021/11/29 01:56:49;;;;;;;;;35.00;34.75;;;;;12.35;97.16;100135.69;4823208;29;12058;-72
2021/11/29 01:59:45;;;;;;;;;28.00;27.00;;;;;12.38;96.70;100134.97;4838211;29;11430;-72
2021/11/29 02:02:41;;;;;;;;;23.00;23.00;;;;;12.34;97.38;100136.81;4841228;29;10548;-72
2021/11/29 02:05:38;;;;;;;;;23.50;23.50;;;;;12.40;97.14;100140.94;4841186;29;10630;-72
2021/11/29 02:08:34;;;;;;;;;24.00;22.00;;;;;12.46;96.91;100141.50;4837012;29;10449;-71
2021/11/29 02:11:30;;;;;;;;;29.00;29.00;;;;;12.40;97.03;100137.38;4841255;29;10457;-72
2021/11/29 02:14:25;;;;;;;;;21.50;21.25;;;;;12.41;97.03;100127.88;4841089;29;10695;-72
2021/11/29 02:17:21;;;;;;;;;17.50;17.50;;;;;12.49;96.76;100127.72;4838829;29;10578;-72
2021/11/29 02:20:18;;;;;;;;;21.50;20.00;;;;;12.42;97.11;100113.69;4823097;29;10375;-71
2021/11/29 02:23:14;;;;;;;;;22.25;22.25;;;;;12.43;97.31;100114.50;4813747;29;10480;-72
2021/11/29 02:26:10;;;;;;;;;24.50;23.75;;;;;12.47;97.20;100118.16;4841072;29;10498;-72
2021/11/29 02:29:15;;;;;;;;;21.75;21.25;;;;;12.47;96.92;100110.63;4823172;29;10453;-72
2021/11/29 02:32:11;;;;;;;;;22.00;22.00;;;;;12.45;97.41;100103.84;4822792;29;10422;-72
2021/11/29 02:35:07;;;;;;;;;21.25;21.00;;;;;12.49;97.20;100099.97;4822682;29;10283;-72
2021/11/29 02:38:05;;;;;;;;;27.50;27.00;;;;;12.54;97.31;100093.38;4830747;29;10383;-72
2021/11/29 02:41:01;;;;;;;;;21.25;21.25;;;;;12.65;96.74;100090.84;4840892;29;10547;-72
2021/11/29 02:43:57;;;;;;;;;11.50;11.50;;;;;12.56;97.08;100091.03;4840995;29;10577;-72
2021/11/29 02:46:53;;;;;;;;;23.00;23.00;;;;;12.52;97.77;100095.69;4839242;29;10267;-72
2021/11/29 02:49:48;;;;;;;;;23.00;22.00;;;;;12.62;96.91;100091.56;4822813;29;10427;-72
2021/11/29 02:52:45;;;;;;;;;20.00;19.00;;;;;12.58;97.63;100090.69;4824684;29;11007;-73
2021/11/29 02:55:41;;;;;;;;;23.00;23.00;;;;;12.66;97.69;100098.81;4825868;29;10259;-72
2021/11/29 02:58:40;;;;;;;;;20.50;20.00;;;;;12.69;97.51;100092.53;4826339;29;10379;-72
2021/11/29 03:01:38;;;;;;;;;19.50;19.50;;;;;12.71;97.36;100072.75;4825824;29;10289;-72
2021/11/29 03:04:34;;;;;;;;;22.25;21.75;;;;;12.72;97.64;100057.72;4809375;29;10214;-72
2021/11/29 03:07:31;;;;;;;;;24.25;22.00;;;;;12.78;97.30;100059.06;4811362;29;10179;-71
2021/11/29 03:10:28;;;;;;;;;18.25;18.25;;;;;12.80;96.86;100070.59;4826300;29;10392;-72
2021/11/29 03:13:23;;;;;;;;;21.50;21.50;;;;;12.82;97.15;100067.47;4825359;29;10312;-72
2021/11/29 03:16:20;;;;;;;;;22.00;22.00;;;;;12.79;97.37;100061.47;4826303;29;10512;-72
2021/11/29 03:19:16;;;;;;;;;19.50;19.50;;;;;12.85;96.97;100053.69;4810903;29;10254;-72
2021/11/29 03:22:12;;;;;;;;;19.50;19.50;;;;;12.82;97.35;100057.19;4808078;29;10437;-72
2021/11/29 03:25:10;;;;;;;;;20.25;19.00;;;;;12.87;97.15;100067.19;4807976;29;10004;-72
2021/11/29 03:28:06;;;;;;;;;19.25;19.25;;;;;12.90;97.13;100070.06;4814688;29;10912;-73
2021/11/29 03:31:02;;;;;;;;;17.50;17.50;;;;;12.80;97.40;100074.19;4825963;29;10236;-73
2021/11/29 03:33:59;;;;;;;;;22.25;22.25;;;;;12.96;97.13;100095.56;4825816;29;10186;-73
2021/11/29 03:36:56;;;;;;;;;20.75;20.75;;;;;12.77;97.63;100099.06;4808044;29;10117;-72
2021/11/29 03:39:52;;;;;;;;;13.50;13.50;;;;;12.83;97.47;100092.09;4808431;29;10188;-72
2021/11/29 03:42:47;;;;;;;;;18.50;18.50;;;;;12.75;97.82;100093.09;4807974;29;10178;-72
2021/11/29 03:45:43;;;;;;;;;16.25;16.25;;;;;12.80;97.30;100101.13;4807692;29;10108;-72
2021/11/29 03:48:38;;;;;;;;;17.25;17.25;;;;;12.85;97.17;100091.72;4816534;29;10174;-72
2021/11/29 03:51:34;;;;;;;;;13.50;13.50;;;;;12.90;97.30;100086.72;4825597;29;10097;-72
2021/11/29 03:54:30;;;;;;;;;15.50;15.50;;;;;12.96;96.62;100088.03;4825552;29;10011;-72
2021/11/29 03:57:26;;;;;;;;;15.50;15.50;;;;;12.87;96.73;100081.06;4822158;29;10012;-72
2021/11/29 04:00:22;;;;;;;;;18.00;17.25;;;;;12.89;96.52;100092.63;4808216;29;10088;-73
2021/11/29 04:03:18;;;;;;;;;20.00;20.00;;;;;12.87;96.95;100079.09;4820019;29;9958;-72
2021/11/29 04:06:14;;;;;;;;;14.75;14.75;;;;;12.74;97.43;100067.31;4823666;29;10934;-72
2021/11/29 04:09:10;;;;;;;;;13.50;13.50;;;;;12.74;97.73;100066.50;4825109;29;10109;-73
2021/11/29 04:12:06;;;;;;;;;16.50;16.50;;;;;12.73;97.83;100084.31;4832286;29;10003;-71
2021/11/29 04:15:03;;;;;;;;;17.00;15.00;;;;;12.74;98.05;100078.41;4824311;29;10062;-70
2021/11/29 04:17:59;;;;;;;;;16.25;15.50;;;;;12.74;97.92;100067.31;4841832;29;9862;-71
2021/11/29 04:20:56;;;;;;;;;16.00;16.00;;;;;12.77;97.93;100074.09;4842730;29;9956;-72
2021/11/29 04:23:52;;;;;;;;;16.75;16.50;;;;;12.84;98.14;100070.69;4842104;29;9841;-72
2021/11/29 04:26:53;;;;;;;;;19.00;19.00;;;;;12.76;98.45;100064.19;4842701;29;10089;-71
2021/11/29 04:29:49;;;;;;;;;15.25;14.50;;;;;12.74;99.12;100049.88;4830182;29;10154;-71
2021/11/29 04:32:47;;;;;;;;;8.25;8.25;;;;;12.66;99.28;100051.66;4841283;29;9749;-71
2021/11/29 04:35:43;;;;;;;;;13.00;13.00;;;;;12.76;98.56;100040.00;4842548;29;10744;-71
2021/11/29 04:38:39;;;;;;;;;16.00;16.00;;;;;12.73;98.81;100039.94;4840364;29;9767;-71
2021/11/29 04:41:34;;;;;;;;;16.00;16.00;;;;;12.85;98.45;100050.91;4822136;29;9919;-72
2021/11/29 04:44:31;;;;;;;;;20.25;19.00;;;;;12.89;98.05;100037.13;4842308;29;10015;-72
2021/11/29 04:47:27;;;;;;;;;13.25;12.25;;;;;12.74;98.48;100042.34;4842378;29;10004;-72
2021/11/29 04:50:23;;;;;;;;;17.50;17.50;;;;;12.86;97.88;100046.16;4842596;29;10485;-71
2021/11/29 04:53:18;;;;;;;;;16.50;15.75;;;;;12.76;98.06;100058.63;4840609;29;9946;-71
2021/11/29 04:56:14;;;;;;;;;21.25;20.25;;;;;12.92;97.53;100058.59;4841078;29;9941;-71
2021/11/29 04:59:10;;;;;;;;;18.25;18.25;;;;;12.80;97.06;100048.41;4842017;29;10649;-71
2021/11/29 05:02:05;;;;;;;;;15.25;15.25;;;;;12.78;97.23;100059.88;4828580;29;10563;-70
2021/11/29 05:05:01;;;;;;;;;17.75;17.75;;;;;12.89;96.82;100053.78;4833615;29;9771;-70
2021/11/29 05:07:57;;;;;;;;;19.00;19.00;;;;;12.68;97.37;100052.09;4833320;29;9689;-70
2021/11/29 05:10:53;;;;;;;;;16.00;16.00;;;;;12.74;97.17;100053.44;4841898;29;9998;-72
2021/11/29 05:13:48;;;;;;;;;19.50;19.50;;;;;12.76;97.23;100041.97;4841759;29;10131;-72
2021/11/29 05:16:44;;;;;;;;;16.00;16.00;;;;;12.73;96.98;100034.38;4836855;29;10183;-73
2021/11/29 05:19:40;;;;;;;;;22.25;18.50;;;;;12.66;97.41;100037.00;4823803;29;10021;-72
2021/11/29 05:22:36;;;;;;;;;17.75;17.75;;;;;12.61;97.51;100040.03;4829901;29;10175;-72
2021/11/29 05:25:32;;;;;;;;;18.50;17.50;;;;;12.71;96.75;100040.28;4841052;29;10269;-72
2021/11/29 05:28:28;;;;;;;;;19.25;18.00;;;;;12.62;97.65;100031.34;4835313;29;10184;-71
2021/11/29 05:31:24;;;;;;;;;17.75;17.75;;;;;12.65;97.15;100036.19;4823393;29;10395;-72
2021/11/29 05:34:20;;;;;;;;;16.75;16.75;;;;;12.71;97.16;100037.50;4824080;29;10424;-71
2021/11/29 05:37:16;;;;;;;;;16.00;16.00;;;;;12.62;96.96;100036.09;4823427;29;10129;-70
2021/11/29 05:40:13;;;;;;;;;21.50;21.50;;;;;12.62;97.04;100038.88;4841136;29;10168;-71
2021/11/29 05:43:08;;;;;;;;;16.50;16.00;;;;;12.53;97.15;100039.88;4841296;29;10211;-72
2021/11/29 05:46:04;;;;;;;;;21.50;21.50;;;;;12.67;97.58;100033.84;4829285;29;10111;-73
2021/11/29 05:49:01;;;;;;;;;19.00;19.00;;;;;12.95;99.19;100030.91;4827546;29;10212;-73
2021/11/29 05:51:58;;;;;;;;;17.50;17.50;;;;;12.67;98.32;100033.84;4834695;29;10134;-75
2021/11/29 05:54:53;;;;;;;;;17.50;17.50;;;;;13.17;100.00;100015.53;4830442;29;10367;-71
2021/11/29 05:57:49;;;;;;;;;16.00;16.00;;;;;13.04;98.96;100014.06;4841347;29;10715;-72
2021/11/29 06:00:46;;;;;;;;;16.50;16.50;;;;;13.20;100.00;100025.13;4828993;29;10008;-72
2021/11/29 06:03:44;;;;;;;;;13.50;13.50;;;;;12.92;96.82;100025.28;4841242;29;10021;-71
2021/11/29 06:06:39;;;;;;;;;16.00;16.00;;;;;12.87;96.55;100025.56;4841484;29;9784;-71
2021/11/29 06:09:35;;;;;;;;;17.00;15.75;;;;;12.78;96.58;100017.44;4841110;29;9883;-71
2021/11/29 06:12:31;;;;;;;;;20.25;16.50;;;;;13.07;100.00;100003.03;4829277;29;10037;-72
2021/11/29 06:15:26;;;;;;;;;15.25;15.25;;;;;12.83;97.28;100019.16;4841094;29;9960;-72
2021/11/29 06:18:22;;;;;;;;;15.50;15.50;;;;;12.79;96.70;100016.28;4841158;29;9958;-71
2021/11/29 06:21:18;;;;;;;;;11.75;11.75;;;;;13.09;97.97;99989.59;4841233;29;9932;-71
2021/11/29 06:24:14;;;;;;;;;13.25;12.25;;;;;13.25;95.82;99999.84;4840541;29;9885;-71
2021/11/29 06:27:10;;;;;;;;;15.00;15.00;;;;;13.24;95.51;99993.50;4839073;29;9609;-71
2021/11/29 06:30:06;;;;;;;;;15.00;15.00;;;;;13.14;93.97;99988.50;4844215;29;9860;-71
2021/11/29 06:33:03;;;;;;;;;11.75;11.75;;;;;13.03;95.23;99982.72;4844784;29;9936;-71
2021/11/29 06:35:59;;;;;;;;;18.00;14.75;;;;;13.09;95.78;99981.25;4844619;29;9850;-71
2021/11/29 06:38:56;;;;;;;;;12.25;12.25;;;;;12.91;94.14;99979.28;4844341;29;9932;-72
2021/11/29 06:41:53;;;;;;;;;13.25;13.25;;;;;13.31;98.33;99981.72;4844656;29;9523;-74
2021/11/29 06:44:49;;;;;;;;;12.25;12.25;;;;;13.09;94.27;99986.81;4843945;29;9751;-78
2021/11/29 06:47:44;;;;;;;;;13.50;13.50;;;;;12.99;92.44;99981.84;4834112;29;9675;-78
2021/11/29 06:50:40;;;;;;;;;10.75;10.75;;;;;12.87;92.94;100006.94;4843269;29;9664;-79
2021/11/29 06:53:37;;;;;;;;;11.75;11.75;;;;;12.80;93.06;100012.31;4825497;29;9790;-80
2021/11/29 06:56:33;;;;;;;;;12.00;11.25;;;;;12.78;93.53;99998.81;4836906;29;9590;-79
2021/11/29 06:59:29;;;;;;;;;11.00;11.00;;;;;12.81;92.85;99989.00;4843846;29;9837;-81
2021/11/29 07:02:28;;;;;;;;;13.50;13.50;;;;;12.68;92.81;99985.53;4843407;29;9747;-79
2021/11/29 07:05:26;;;;;;;;;11.00;11.00;;;;;12.75;92.94;99979.34;4840980;29;9714;-80
2021/11/29 07:08:23;;;;;;;;;11.00;11.00;;;;;12.77;92.88;99977.00;4832598;29;9987;-80
2021/11/29 07:11:19;;;;;;;;;10.25;10.25;;;;;12.78;92.80;99978.59;4844349;29;9974;-80
2021/11/29 07:14:15;;;;;;;;;15.00;15.00;;;;;12.83;92.52;99981.09;4844059;29;9685;-80
2021/11/29 07:17:11;;;;;;;;;8.75;8.75;;;;;12.86;91.39;99968.47;4842779;29;9927;-79
2021/11/29 07:20:08;;;;;;;;;11.25;11.25;;;;;12.86;91.72;99960.13;4843921;29;9494;-78
2021/11/29 07:23:04;;;;;;;;;8.67;8.67;;;;;12.77;91.22;99957.56;4843792;29;9621;-79
2021/11/29 07:26:00;;;;;;;;;10.75;10.75;;;;;12.70;91.78;99951.88;4830494;29;10260;-78
2021/11/29 07:28:56;;;;;;;;;8.25;8.25;;;;;12.75;91.74;99940.50;4825235;29;9681;-78
2021/11/29 07:31:52;;;;;;;;;10.33;9.67;;;;;12.82;90.65;99934.28;4834006;29;9596;-77
2021/11/29 07:34:48;;;;;;;;;11.50;11.50;;;;;12.86;90.74;99944.28;4838811;29;9482;-78
2021/11/29 07:37:43;;;;;;;;;9.00;9.00;;;;;12.87;90.86;99942.31;4837301;29;9790;-78
2021/11/29 07:40:40;;;;;;;;;11.50;11.50;;;;;12.93;90.67;99940.84;4841122;29;10666;-78
2021/11/29 07:43:35;;;;;;;;;11.25;11.25;;;;;12.88;89.78;99930.03;4825286;29;9848;-78
2021/11/29 07:46:31;;;;;;;;;10.00;10.00;;;;;12.92;89.27;99928.97;4830385;29;9785;-77
2021/11/29 07:49:27;;;;;;;;;8.25;8.25;;;;;12.92;89.41;99925.38;4843880;29;9624;-78
2021/11/29 07:52:23;;;;;;;;;9.75;9.75;;;;;12.91;88.86;99919.03;4836770;29;9801;-77
2021/11/29 07:55:23;;;;;;;;;12.75;12.75;;;;;12.82;89.26;99910.13;4842287;29;9672;-83
2021/11/29 07:58:20;;;;;;;;;10.75;10.75;;;;;12.94;89.04;99911.94;4837503;29;9856;-83
2021/11/29 08:01:16;;;;;;;;;13.75;11.50;;;;;12.85;88.46;99903.84;4841129;29;9731;-83
2021/11/29 08:04:26;;;;;;;;;13.75;13.75;;;;;12.90;89.40;99900.78;4837670;29;9937;-84
2021/11/29 08:07:32;;;;;;;;;11.00;11.00;;;;;12.91;88.70;99907.13;4835766;29;9831;-83
2021/11/29 08:10:35;;;;;;;;;12.00;12.00;;;;;12.96;88.62;99904.88;4841423;29;9766;-84
2021/11/29 08:13:32;;;;;;;;;11.00;11.00;;;;;12.91;89.27;99902.38;4841951;29;9794;-84
2021/11/29 08:16:29;;;;;;;;;13.25;13.25;;;;;12.98;89.10;99891.44;4839645;29;9763;-84
2021/11/29 08:19:36;;;;;;;;;12.50;12.50;;;;;12.98;89.06;99885.88;4833156;29;9853;-85
2021/11/29 08:22:31;;;;;;;;;11.75;11.75;;;;;13.01;89.14;99887.91;4840768;29;9860;-85
2021/11/29 08:25:28;;;;;;;;;13.00;12.75;;;;;13.02;89.60;99878.41;4836904;29;9855;-85
2021/11/29 08:28:27;;;;;;;;;13.25;13.25;;;;;13.03;89.55;99871.72;4835801;29;10475;-84
2021/11/29 08:31:42;;;;;;;;;14.75;14.75;;;;;13.15;89.37;99867.16;4842522;29;9930;-84
2021/11/29 08:34:41;;;;;;;;;14.25;14.25;;;;;13.11;88.94;99832.94;4842251;29;9858;-82
2021/11/29 08:37:43;;;;;;;;;14.50;14.50;;;;;13.09;89.13;99820.25;4832543;29;9845;-85
2021/11/29 08:40:51;;;;;;;;;19.00;18.00;;;;;13.07;89.28;99830.13;4838230;29;9800;-86
2021/11/29 08:43:52;;;;;;;;;15.50;15.25;;;;;13.16;89.35;99822.34;4841954;29;10644;-86
2021/11/29 08:46:51;;;;;;;;;15.25;15.25;;;;;13.25;88.94;99827.69;4841681;29;9885;-86
2021/11/29 08:50:12;;;;;;;;;12.75;12.75;;;;;13.23;88.98;99808.63;4841644;29;9766;-85
2021/11/29 08:53:55;;;;;;;;;17.25;14.75;;;;;13.34;88.28;99783.81;4824700;29;9663;-85
2021/11/29 08:56:56;;;;;;;;;12.00;12.00;;;;;13.38;88.41;99783.88;4837249;29;9756;-86
2021/11/29 09:00:03;;;;;;;;;12.00;12.00;;;;;13.40;88.03;99774.00;4840786;29;10628;-86
2021/11/29 09:03:07;;;;;;;;;14.75;14.75;;;;;13.46;87.79;99755.06;4823445;29;9771;-85
2021/11/29 09:06:08;;;;;;;;;14.50;14.50;;;;;13.50;87.77;99745.63;4835290;29;9776;-85
2021/11/29 09:09:05;;;;;;;;;13.00;13.00;;;;;13.55;87.79;99753.63;4841633;29;9854;-85
2021/11/29 09:12:08;;;;;;;;;17.50;17.50;;;;;13.62;87.17;99745.38;4837293;29;9486;-84
2021/11/29 09:15:21;;;;;;;;;11.00;11.00;;;;;13.74;87.31;99738.03;4838548;29;10846;-85
2021/11/29 09:18:23;;;;;;;;;12.00;12.00;;;;;13.64;87.20;99726.38;4823207;29;10268;-84
2021/11/29 09:21:31;;;;;;;;;11.00;10.67;;;;;13.89;86.18;99723.16;4832759;29;10270;-84
2021/11/29 09:24:34;;;;;;;;;9.67;9.67;;;;;13.97;86.04;99702.63;4826395;29;9525;-84
2021/11/29 09:27:33;;;;;;;;;10.00;9.00;;;;;14.05;86.05;99692.38;4829120;29;9525;-84
2021/11/29 09:30:30;;;;;;;;;12.33;12.00;;;;;14.12;86.25;99682.16;4841821;29;9553;-84
2021/11/29 09:33:49;;;;;;;;;12.67;10.33;;;;;14.10;86.26;99678.94;4841443;29;9369;-85
2021/11/29 09:36:46;;;;;;;;;10.00;10.00;;;;;14.17;85.97;99681.78;4825321;29;9381;-86
2021/11/29 09:39:48;;;;;;;;;10.67;10.67;;;;;14.24;85.52;99694.97;4823157;29;9125;-86
2021/11/29 09:42:49;;;;;;;;;9.00;9.00;;;;;14.30;86.08;99687.13;4840128;29;9276;-85
2021/11/29 09:45:57;;;;;;;;;6.00;6.00;;;;;14.30;85.44;99676.78;4840484;29;9052;-85
2021/11/29 09:49:03;;;;;;;;;10.67;10.67;;;;;14.31;85.05;99660.91;4839762;29;9225;-85
2021/11/29 09:52:00;;;;;;;;;10.33;10.33;;;;;14.35;84.59;99672.88;4840339;29;9299;-84
2021/11/29 09:54:56;;;;;;;;;9.33;8.67;;;;;14.39;84.94;99641.13;4830861;29;10031;-84
2021/11/29 09:57:55;;;;;;;;;6.00;6.00;;;;;14.21;85.21;99631.00;4837878;29;9217;-84
2021/11/29 10:00:59;;;;;;;;;8.00;8.00;;;;;14.06;86.42;99643.94;4843172;29;9397;-84
2021/11/29 10:04:03;;;;;;;;;6.67;6.67;;;;;14.13;86.14;99633.72;4841090;29;9307;-84
2021/11/29 10:07:04;;;;;;;;;10.00;10.00;;;;;14.12;86.12;99620.19;4839872;29;9563;-83
2021/11/29 10:10:34;;;;;;;;;7.33;7.00;;;;;14.07;88.32;99595.50;4830133;29;9260;-84
2021/11/29 10:13:45;;;;;;;;;12.67;9.67;;;;;14.32;88.30;99562.38;4820326;29;9052;-83
2021/11/29 10:16:43;;;;;;;;;14.67;14.00;;;;;14.26;87.78;99559.16;4834775;29;9140;-83
2021/11/29 10:19:40;;;;;;;;;8.67;8.67;;;;;14.41;87.06;99544.19;4840879;29;9422;-84
2021/11/29 10:22:35;;;;;;;;;10.67;10.67;;;;;14.41;85.79;99510.81;4833363;29;9044;-86
2021/11/29 10:25:31;;;;;;;;;10.67;10.67;;;;;14.49;85.54;99508.91;4826943;29;9048;-84
2021/11/29 10:28:31;;;;;;;;;7.33;7.33;;;;;14.59;84.63;99499.06;4823745;29;9125;-82
2021/11/29 10:31:32;;;;;;;;;13.33;12.33;;;;;14.68;85.64;99480.03;4822796;29;9239;-80
2021/11/29 10:34:33;;;;;;;;;10.33;10.33;;;;;14.71;83.51;99485.63;4822791;29;9294;-80
2021/11/29 10:37:33;;;;;;;;;8.33;8.33;;;;;14.77;82.28;99476.91;4822867;29;9199;-81
2021/11/29 10:40:29;;;;;;;;;7.67;7.67;;;;;14.85;82.90;99470.19;4822386;29;9055;-81
2021/11/29 10:43:40;;;;;;;;;10.67;7.00;;;;;14.93;81.97;99474.63;4822482;29;9140;-80
2021/11/29 10:46:41;;;;;;;;;6.33;6.33;;;;;14.81;81.15;99489.69;4822608;29;9125;-80
2021/11/29 10:49:42;;;;;;;;;6.67;6.67;;;;;14.78;82.66;99509.13;4822642;29;9052;-80
2021/11/29 10:52:38;;;;;;;;;9.00;9.00;;;;;14.82;82.38;99533.00;4822639;29;8972;-79
2021/11/29 10:56:00;;;;;;;;;6.75;6.75;;;;;14.69;83.06;99552.00;4822635;29;8922;-81
2021/11/29 10:58:58;;;;;;;;;1.50;1.50;;;;;14.52;83.56;99572.13;4822591;29;8878;-80
2021/11/29 11:02:01;;;;;;;;;7.33;7.00;;;;;14.60;83.73;99596.06;4822547;29;8942;-81
2021/11/29 11:05:07;;;;;;;;;9.50;9.50;;;;;14.25;85.75;99559.53;4822810;29;9056;-80
2021/11/29 11:08:16;;;;;;;;;4.33;4.33;;;;;14.26;88.03;99492.44;4822957;29;8892;-82
2021/11/29 11:11:37;;;;;;;;;8.67;8.33;;;;;14.10;86.10;99478.75;4822913;29;9244;-86
2021/11/29 11:14:53;;;;;;;;;11.67;11.67;;;;;13.96;87.40;99478.66;4840963;29;9304;-86
2021/11/29 11:17:58;;;;;;;;;6.00;6.00;;;;;13.88;88.09;99429.75;4825059;29;9333;-85
2021/11/29 11:21:15;;;;;;;;;8.00;8.00;;;;;13.94;88.69;99422.63;4829592;29;9328;-85
2021/11/29 11:24:46;;;;;;;;;9.00;8.67;;;;;13.86;89.50;99429.31;4839565;29;9474;-85
2021/11/29 11:31:32;;;;;;;;;8.67;8.00;;;;;13.96;88.68;99389.72;4835463;29;9450;-85
2021/11/29 11:34:41;;;;;;;;;11.33;11.33;;;;;13.99;87.92;99388.16;4841807;29;9476;-84
2021/11/29 11:41:05;;;;;;;;;11.67;11.67;;;;;13.89;88.95;99371.00;4767036;29;9419;-80
2021/11/29 11:44:04;;;;;;;;;11.00;11.00;;;;;14.03;88.54;99361.97;4840011;29;9536;-80
2021/11/29 11:47:01;;;;;;;;;11.33;10.00;;;;;13.98;88.89;99353.19;4842602;29;9363;-80
2021/11/29 11:49:57;;;;;;;;;10.00;10.00;;;;;13.91;89.22;99342.81;4843369;29;9326;-81
2021/11/29 11:52:54;;;;;;;;;9.67;9.67;;;;;14.10;89.31;99338.97;4843355;29;9291;-80
2021/11/29 11:55:52;;;;;;;;;10.33;10.33;;;;;14.00;90.03;99340.50;4841816;29;9381;-80
2021/11/29 11:58:55;;;;;;;;;10.67;10.67;;;;;13.84;90.93;99326.91;4823597;29;9301;-77
2021/11/29 12:01:55;;;;;;;;;9.67;8.67;;;;;13.94;90.69;99341.25;4827451;29;9468;-81
2021/11/29 12:09:08;;;;;;;;;8.67;8.67;;;;;13.86;91.29;99307.84;4807680;29;10076;-87
2021/11/29 12:13:02;;;;;;;;;11.75;11.75;;;;;13.90;91.68;99280.09;4837230;29;10131;-88
2021/11/29 12:16:53;;;;;;;;;12.00;11.25;;;;;14.04;90.32;99248.81;4798442;29;9621;-87
2021/11/29 12:20:26;;;;;;;;;13.67;11.67;;;;;13.99;90.66;99243.63;4838303;29;9477;-86
2021/11/29 12:24:37;;;;;;;;;10.00;10.00;;;;;14.01;90.97;99236.47;4821080;29;9588;-87
2021/11/29 12:32:39;;;;;;;;;;;;;;;;;;;;;
2021/11/29 12:39:44;;;;;;;;;13.00;10.67;;;;;14.10;90.69;99206.34;4737956;30;9359;-86
2021/11/29 12:43:10;;;;;;;;;13.33;13.33;;;;;14.12;90.96;99173.41;4813700;29;9408;-86
2021/11/29 12:46:30;;;;;;;;;16.67;16.67;;;;;14.16;91.03;99163.09;4843043;29;9453;-80
2021/11/29 12:49:48;;;;;;;;;11.67;10.00;;;;;13.98;91.54;99175.31;4841483;29;9534;-84
2021/11/29 12:53:10;;;;;;;;;15.67;12.33;;;;;14.05;91.67;99186.47;4843089;29;9481;-82
2021/11/29 12:56:16;;;;;;;;;10.67;10.67;;;;;14.02;91.44;99203.91;4833199;29;10124;-83
2021/11/29 12:59:22;;;;;;;;;10.33;10.33;;;;;14.00;91.43;99120.94;4840083;29;9244;-84
2021/11/29 13:02:38;;;;;;;;;12.67;12.00;;;;;14.02;92.37;99135.22;4837666;29;9396;-84
2021/11/29 13:05:42;;;;;;;;;11.50;11.50;;;;;14.00;92.52;99128.47;4841686;29;9272;-84
2021/11/29 13:09:16;;;;;;;;;19.00;18.75;;;;;14.04;92.28;99135.66;4829552;29;9517;-84
2021/11/29 13:12:48;;;;;;;;;16.75;16.75;;;;;14.11;91.93;99107.09;4768096;30;9827;-84
2021/11/29 13:15:53;;;;;;;;;12.00;12.00;;;;;14.11;92.07;99082.06;4765749;30;9519;-84
2021/11/29 13:19:41;;;;;;;;;16.33;16.33;;;;;14.13;92.04;99071.34;4766738;30;9368;-84
2021/11/29 13:23:06;;;;;;;;;14.25;14.25;;;;;14.13;91.96;99080.47;4766827;30;9184;-85
2021/11/29 13:26:15;;;;;;;;;14.50;13.25;;;;;14.08;91.73;99044.72;4795297;29;9609;-83
2021/11/29 13:29:23;;;;;;;;;9.67;9.67;;;;;14.24;91.61;99016.53;4839101;29;9541;-83
2021/11/29 13:32:27;;;;;;;;;16.50;15.75;;;;;14.28;91.36;98994.31;4824699;29;9473;-85
2021/11/29 13:35:44;;;;;;;;;;;;;;;;;;;;;
2021/11/29 13:42:09;;;;;;;;;10.67;10.67;;;;;14.35;91.81;98949.84;4842110;29;9297;-84
2021/11/29 13:45:37;;;;;;;;;15.33;15.33;;;;;14.54;90.96;98996.72;4829511;29;9522;-84
2021/11/29 13:48:29;;;;;;;;;14.67;14.67;;;;;14.45;91.72;99026.91;4815238;29;10003;-84
2021/11/29 13:51:15;;;;;;;;;12.00;12.00;;;;;14.43;92.48;98995.91;4828662;29;9493;-82
2021/11/29 13:54:23;;;;;;;;;12.00;12.00;;;;;14.45;92.44;98982.41;4841077;29;9363;-85
2021/11/29 13:57:35;;;;;;;;;17.33;16.67;;;;;14.41;93.33;99017.75;4841212;29;10010;-85
2021/11/29 14:00:59;;;;;;;;;13.67;13.67;;;;;14.20;93.63;98976.84;4841456;29;9438;-84
2021/11/29 14:03:47;;;;;;;;;19.67;18.33;;;;;14.37;93.07;98950.22;4835553;29;9410;-79
2021/11/29 14:06:21;;;;;;;;;15.67;15.67;;;;;14.36;93.29;98946.66;4832575;29;9364;-85
2021/11/29 14:08:52;;;;;;;;;21.33;21.33;;;;;14.43;92.75;98932.75;4833487;29;9369;-85
2021/11/29 14:11:33;;;;;;;;;17.33;17.00;;;;;14.42;92.32;98935.94;4819212;29;9435;-85
2021/11/29 14:14:04;;;;;;;;;21.33;21.33;;;;;14.45;92.17;98929.56;4831838;29;9377;-86
2021/11/29 14:17:00;;;;;;;;;17.67;17.67;;;;;14.41;91.55;98909.28;4818803;29;9482;-86